createdAt,value
2019-03-20T00:00:29.219Z,99415.80
2019-03-20T00:02:57.624Z,99412.25
2019-03-20T00:05:26.255Z,99414.69
2019-03-20T00:07:54.639Z,99421.41
2019-03-20T00:10:23.659Z,99421.90
2019-03-20T00:12:52.048Z,99421.90
2019-03-20T00:15:20.443Z,99419.45
2019-03-20T00:17:48.843Z,99423.02
2019-03-20T00:20:17.245Z,99419.06
2019-03-20T00:22:45.632Z,99427.83
2019-03-20T00:25:14.642Z,99424.55
2019-03-20T00:27:43.037Z,99427.75
2019-03-20T00:30:14.232Z,99424.72
2019-03-20T00:32:42.776Z,99421.04
2019-03-20T00:35:11.299Z,99427.75
2019-03-20T00:37:39.930Z,99431.83
2019-03-20T00:40:13.064Z,99433.19
2019-03-20T00:42:41.502Z,99428.80
2019-03-20T00:45:14.518Z,99427.79
2019-03-20T00:47:42.919Z,99430.91
2019-03-20T00:50:18.003Z,99426.27
2019-03-20T00:52:46.464Z,99425.67
2019-03-20T00:55:16.308Z,99423.43
2019-03-20T00:57:45.281Z,99423.95
2019-03-20T01:00:16.345Z,99429.75
2019-03-20T01:02:45.002Z,99426.18
2019-03-20T01:05:14.024Z,99424.50
2019-03-20T01:07:42.580Z,99424.27
2019-03-20T01:10:16.988Z,99430.38
2019-03-20T01:12:45.377Z,99427.66
2019-03-20T01:15:14.547Z,99418.07
2019-03-20T01:17:43.122Z,99422.75
2019-03-20T01:20:22.575Z,99421.39
2019-03-20T01:22:51.120Z,99415.75
2019-03-20T01:25:20.081Z,99414.91
2019-03-20T01:27:48.601Z,99417.11
2019-03-20T01:30:29.874Z,99410.19
2019-03-20T01:32:58.792Z,99410.58
2019-03-20T01:35:27.180Z,99412.17
2019-03-20T01:37:55.583Z,99416.25
2019-03-20T01:40:23.978Z,99414.05
2019-03-20T01:42:52.360Z,99414.13
2019-03-20T01:45:20.770Z,99411.94
2019-03-20T01:47:49.221Z,99408.33
2019-03-20T01:50:17.848Z,99415.52
2019-03-20T01:52:46.496Z,99415.67
2019-03-20T01:55:14.883Z,99415.52
2019-03-20T01:57:43.266Z,99414.55
2019-03-20T02:00:12.213Z,99413.23
2019-03-20T02:02:40.843Z,99408.92
2019-03-20T02:05:09.300Z,99409.69
2019-03-20T02:07:37.937Z,99407.73
2019-03-20T02:10:09.332Z,99403.42
2019-03-20T02:12:37.720Z,99409.45
2019-03-20T02:15:14.056Z,99416.09
2019-03-20T02:17:42.439Z,99411.70
2019-03-20T02:20:15.636Z,99418.20
2019-03-20T02:22:44.104Z,99411.05
2019-03-20T02:25:13.627Z,99415.28
2019-03-20T02:27:42.086Z,99416.55
2019-03-20T02:30:18.410Z,99415.20
2019-03-20T02:32:46.848Z,99416.33
2019-03-20T02:35:15.322Z,99416.74
2019-03-20T02:37:43.937Z,99418.34
2019-03-20T02:40:14.098Z,99423.64
2019-03-20T02:42:42.804Z,99424.11
2019-03-20T02:45:13.767Z,99425.18
2019-03-20T02:47:42.261Z,99424.34
2019-03-20T02:50:11.930Z,99422.48
2019-03-20T02:52:40.314Z,99431.69
2019-03-20T02:55:10.544Z,99433.17
2019-03-20T02:57:39.172Z,99425.27
2019-03-20T03:00:10.698Z,99428.22
2019-03-20T03:02:39.082Z,99429.58
2019-03-20T03:05:08.489Z,99426.92
2019-03-20T03:07:37.117Z,99428.97
2019-03-20T03:10:11.491Z,99420.83
2019-03-20T03:12:40.197Z,99423.31
2019-03-20T03:15:10.447Z,99432.36
2019-03-20T03:17:38.903Z,99423.92
2019-03-20T03:20:11.451Z,99427.47
2019-03-20T03:22:40.089Z,99420.13
2019-03-20T03:25:10.349Z,99424.61
2019-03-20T03:27:38.747Z,99426.55
2019-03-20T03:30:17.196Z,99432.08
2019-03-20T03:32:46.390Z,99436.15
2019-03-20T03:35:17.704Z,99436.81
2019-03-20T03:37:45.713Z,99436.36
2019-03-20T03:40:15.764Z,99435.31
2019-03-20T03:42:44.227Z,99436.06
2019-03-20T03:45:14.288Z,99438.03
2019-03-20T03:47:42.690Z,99438.31
2019-03-20T03:50:11.504Z,99443.41
2019-03-20T03:52:40.165Z,99444.16
2019-03-20T03:55:09.775Z,99445.00
2019-03-20T03:57:38.501Z,99453.38
2019-03-20T04:00:09.986Z,99458.79
2019-03-20T04:02:38.348Z,99456.96
2019-03-20T04:05:07.038Z,99462.25
2019-03-20T04:07:35.494Z,99455.92
2019-03-20T04:10:05.617Z,99454.57
2019-03-20T04:12:34.005Z,99449.72
2019-03-20T04:15:02.478Z,99455.61
2019-03-20T04:17:30.867Z,99462.84
2019-03-20T04:19:59.491Z,99466.30
2019-03-20T04:22:28.137Z,99461.89
2019-03-20T04:24:56.520Z,99462.48
2019-03-20T04:27:24.995Z,99468.55
2019-03-20T04:29:53.690Z,99468.42
2019-03-20T04:32:22.306Z,99471.16
2019-03-20T04:34:50.712Z,99478.27
2019-03-20T04:37:19.335Z,99473.71
2019-03-20T04:39:47.720Z,99474.91
2019-03-20T04:42:16.126Z,99489.72
2019-03-20T04:44:44.744Z,99484.68
2019-03-20T04:47:13.381Z,99485.72
2019-03-20T04:49:42.003Z,99485.11
2019-03-20T04:52:10.396Z,99483.84
2019-03-20T04:54:38.791Z,99490.14
2019-03-20T04:57:07.236Z,99485.05
2019-03-20T04:59:35.617Z,99487.98
2019-03-20T05:02:04.026Z,99490.70
2019-03-20T05:04:32.404Z,99492.98
2019-03-20T05:07:00.849Z,99496.25
2019-03-20T05:09:29.490Z,99498.16
2019-03-20T05:11:58.119Z,99508.10
2019-03-20T05:14:26.500Z,99508.62
2019-03-20T05:16:54.901Z,99514.49
2019-03-20T05:19:23.287Z,99509.58
2019-03-20T05:21:51.679Z,99520.66
2019-03-20T05:24:20.079Z,99522.14
2019-03-20T05:26:48.466Z,99521.53
2019-03-20T05:29:16.851Z,99523.18
2019-03-20T05:31:45.251Z,99524.50
2019-03-20T05:34:13.876Z,99525.66
2019-03-20T05:36:42.513Z,99529.37
2019-03-20T05:39:10.960Z,99530.80
2019-03-20T05:41:39.585Z,99530.34
2019-03-20T05:44:07.988Z,99526.76
2019-03-20T05:46:36.375Z,99524.34
2019-03-20T05:49:04.883Z,99537.03
2019-03-20T05:51:33.530Z,99536.89
2019-03-20T05:54:01.946Z,99545.83
2019-03-20T05:56:30.582Z,99550.83
2019-03-20T05:58:58.979Z,99547.05
2019-03-20T06:01:27.367Z,99552.11
2019-03-20T06:03:56.014Z,99552.20
2019-03-20T06:06:24.641Z,99556.47
2019-03-20T06:08:53.275Z,99558.89
2019-03-20T06:11:21.727Z,99556.87
2019-03-20T06:13:50.347Z,99559.96
2019-03-20T06:16:18.732Z,99555.97
2019-03-20T06:18:47.367Z,99548.71
2019-03-20T06:21:16.000Z,99545.99
2019-03-20T06:23:44.635Z,99550.91
2019-03-20T06:26:13.022Z,99549.70
2019-03-20T06:28:41.682Z,99552.20
2019-03-20T06:31:10.347Z,99555.53
2019-03-20T06:33:38.988Z,99560.56
2019-03-20T06:36:07.616Z,99562.98
2019-03-20T06:38:36.015Z,99572.73
2019-03-20T06:41:04.407Z,99574.23
2019-03-20T06:43:33.042Z,99571.52
2019-03-20T06:46:01.668Z,99576.41
2019-03-20T06:48:30.062Z,99581.42
2019-03-20T06:50:58.467Z,99582.45
2019-03-20T06:53:26.852Z,99591.30
2019-03-20T06:55:55.478Z,99585.41
2019-03-20T06:58:24.114Z,99597.53
2019-03-20T07:00:58.544Z,99594.81
2019-03-20T07:03:42.137Z,99598.24
2019-03-20T07:06:16.713Z,99597.17
2019-03-20T07:09:10.414Z,99604.24
2019-03-20T07:11:40.347Z,99598.05
2019-03-20T07:14:08.745Z,99600.58
2019-03-20T07:16:37.387Z,99598.14
2019-03-20T07:19:06.087Z,99605.11
2019-03-20T07:21:34.473Z,99607.43
2019-03-20T07:24:03.117Z,99605.78
2019-03-20T07:26:31.743Z,99611.30
2019-03-20T07:29:00.190Z,99612.61
2019-03-20T07:31:28.585Z,99610.77
2019-03-20T07:33:57.028Z,99615.27
2019-03-20T07:36:25.724Z,99615.70
2019-03-20T07:38:54.128Z,99623.77
2019-03-20T07:41:22.517Z,99628.39
2019-03-20T07:43:50.912Z,99622.87
2019-03-20T07:46:19.297Z,99625.72
2019-03-20T07:48:47.935Z,99623.96
2019-03-20T07:51:16.382Z,99627.64
2019-03-20T07:53:45.005Z,99621.70
2019-03-20T07:56:13.699Z,99629.52
2019-03-20T07:58:42.105Z,99626.83
2019-03-20T08:01:10.553Z,99630.64
2019-03-20T08:03:38.940Z,99636.09
2019-03-20T08:06:07.582Z,99631.74
2019-03-20T08:08:35.971Z,99634.40
2019-03-20T08:11:04.436Z,99634.27
2019-03-20T08:13:33.073Z,99638.73
2019-03-20T08:16:03.893Z,99638.77
2019-03-20T08:18:31.835Z,99647.52
2019-03-20T08:21:00.464Z,99646.73
2019-03-20T08:23:28.857Z,99655.75
2019-03-20T08:25:57.264Z,99648.86
2019-03-20T08:28:25.651Z,99652.88
2019-03-20T08:30:54.289Z,99648.86
2019-03-20T08:33:22.692Z,99644.46
2019-03-20T08:35:51.084Z,99650.40
2019-03-20T08:38:19.730Z,99647.15
2019-03-20T08:40:48.354Z,99647.84
2019-03-20T08:43:16.982Z,99646.83
2019-03-20T08:45:45.454Z,99642.85
2019-03-20T08:48:14.090Z,99643.67
2019-03-20T08:50:42.719Z,99652.98
2019-03-20T08:53:11.360Z,99657.91
2019-03-20T08:55:39.759Z,99647.91
2019-03-20T08:58:08.153Z,99649.61
2019-03-20T09:00:36.574Z,99654.34
2019-03-20T09:03:05.258Z,99651.39
2019-03-20T09:05:33.655Z,99656.70
2019-03-20T09:08:02.054Z,99657.80
2019-03-20T09:10:30.707Z,99655.47
2019-03-20T09:12:59.162Z,99665.98
2019-03-20T09:15:27.559Z,99667.80
2019-03-20T09:17:55.939Z,99664.43
2019-03-20T09:20:25.093Z,99657.95
2019-03-20T09:22:53.491Z,99664.88
2019-03-20T09:25:26.644Z,99655.59
2019-03-20T09:27:55.110Z,99656.48
2019-03-20T09:30:24.630Z,99651.83
2019-03-20T09:32:53.148Z,99655.25
2019-03-20T09:35:22.035Z,99658.72
2019-03-20T09:37:52.198Z,99655.95
2019-03-20T09:40:28.436Z,99652.57
2019-03-20T09:42:56.816Z,99656.20
2019-03-20T09:45:25.565Z,99661.28
2019-03-20T09:47:53.969Z,99662.98
2019-03-20T09:50:24.355Z,99664.59
2019-03-20T09:52:52.871Z,99663.64
2019-03-20T09:55:21.580Z,99663.33
2019-03-20T09:57:50.044Z,99664.58
2019-03-20T10:00:25.547Z,99662.38
2019-03-20T10:02:54.425Z,99657.18
2019-03-20T10:05:22.932Z,99662.64
2019-03-20T10:07:51.645Z,99664.05
2019-03-20T10:10:30.578Z,99658.05
2019-03-20T10:12:58.978Z,99651.70
2019-03-20T10:15:31.598Z,99654.01
2019-03-20T10:18:00.165Z,99654.33
2019-03-20T10:20:28.615Z,99652.67
2019-03-20T10:22:57.236Z,99659.27
2019-03-20T10:25:25.925Z,99656.55
2019-03-20T10:27:54.500Z,99658.73
2019-03-20T10:30:26.916Z,99659.84
2019-03-20T10:32:55.293Z,99657.66
2019-03-20T10:35:23.682Z,99654.34
2019-03-20T10:37:52.123Z,99660.66
2019-03-20T10:40:22.622Z,99661.48
2019-03-20T10:42:51.088Z,99663.72
2019-03-20T10:45:20.308Z,99661.22
2019-03-20T10:47:49.019Z,99663.41
2019-03-20T10:50:21.427Z,99662.59
2019-03-20T10:52:50.089Z,99653.52
2019-03-20T10:55:18.691Z,99660.94
2019-03-20T10:57:47.223Z,99661.50
2019-03-20T11:00:23.300Z,99656.81
2019-03-20T11:02:51.689Z,99659.55
2019-03-20T11:05:20.143Z,99648.56
2019-03-20T11:07:48.755Z,99660.68
2019-03-20T11:10:22.211Z,99658.16
2019-03-20T11:12:50.898Z,99657.89
2019-03-20T11:15:20.507Z,99660.63
2019-03-20T11:17:49.130Z,99664.49
2019-03-20T11:20:18.645Z,99659.81
2019-03-20T11:22:47.407Z,99661.46
2019-03-20T11:25:23.211Z,99660.67
2019-03-20T11:27:51.839Z,99665.87
2019-03-20T11:30:27.186Z,99656.55
2019-03-20T11:32:55.822Z,99651.33
2019-03-20T11:35:24.519Z,99651.04
2019-03-20T11:37:53.273Z,99648.56
2019-03-20T11:40:35.322Z,99644.69
2019-03-20T11:43:03.959Z,99647.98
2019-03-20T11:45:32.403Z,99648.77
2019-03-20T11:48:00.785Z,99648.56
2019-03-20T11:50:40.401Z,99644.42
2019-03-20T11:53:09.316Z,99635.34
2019-03-20T11:55:38.048Z,99632.30
2019-03-20T11:58:07.261Z,99632.31
2019-03-20T12:00:35.640Z,99630.38
2019-03-20T12:03:04.490Z,99627.26
2019-03-20T12:05:32.882Z,99623.48
2019-03-20T12:08:01.257Z,99617.69
2019-03-20T12:10:30.777Z,99613.50
2019-03-20T12:12:59.475Z,99621.50
2019-03-20T12:15:28.163Z,99610.48
2019-03-20T12:17:56.791Z,99606.34
2019-03-20T12:20:25.875Z,99605.80
2019-03-20T12:22:54.549Z,99611.39
2019-03-20T12:25:36.188Z,99603.65
2019-03-20T12:28:05.040Z,99591.23
2019-03-20T12:30:35.598Z,99594.01
2019-03-20T12:33:04.261Z,99590.13
2019-03-20T12:35:36.710Z,99590.94
2019-03-20T12:38:14.343Z,99590.14
2019-03-20T12:40:36.439Z,99589.84
2019-03-20T12:43:05.604Z,99585.11
2019-03-20T12:45:38.891Z,99579.89
2019-03-20T12:48:08.455Z,99576.58
2019-03-20T12:50:36.889Z,99575.72
2019-03-20T12:53:07.790Z,99574.03
2019-03-20T12:55:36.422Z,99568.58
2019-03-20T12:58:04.947Z,99569.13
2019-03-20T13:00:33.646Z,99566.20
2019-03-20T13:03:02.028Z,99564.13
2019-03-20T13:05:30.423Z,99562.97
2019-03-20T13:08:05.492Z,99558.94
2019-03-20T13:10:28.988Z,99554.44
2019-03-20T13:12:57.627Z,99550.11
2019-03-20T13:15:27.306Z,99551.05
2019-03-20T13:17:56.528Z,99544.64
2019-03-20T13:20:25.158Z,99551.73
2019-03-20T13:23:11.592Z,99546.77
2019-03-20T13:25:39.983Z,99546.55
2019-03-20T13:28:08.604Z,99546.17
2019-03-20T13:30:45.586Z,99543.17
2019-03-20T13:33:24.950Z,99543.36
2019-03-20T13:35:44.546Z,99541.97
2019-03-20T13:38:13.174Z,99543.75
2019-03-20T13:40:41.628Z,99540.64
2019-03-20T13:43:10.027Z,99535.02
2019-03-20T13:45:38.412Z,99537.64
2019-03-20T13:48:06.791Z,99539.45
2019-03-20T13:50:35.245Z,99535.21
2019-03-20T13:53:03.623Z,99524.41
2019-03-20T13:55:32.258Z,99522.84
2019-03-20T13:58:00.710Z,99525.48
2019-03-20T14:00:29.165Z,99522.48
2019-03-20T14:02:57.799Z,99520.50
2019-03-20T14:05:26.414Z,99524.16
2019-03-20T14:07:54.869Z,99517.52
2019-03-20T14:10:28.207Z,99516.44
2019-03-20T14:12:56.821Z,99519.95
2019-03-20T14:15:25.283Z,99513.24
2019-03-20T14:17:53.713Z,99509.56
2019-03-20T14:20:29.016Z,99504.81
2019-03-20T14:22:57.412Z,99507.91
2019-03-20T14:25:25.934Z,99501.70
2019-03-20T14:27:54.398Z,99509.27
2019-03-20T14:30:28.162Z,99508.63
2019-03-20T14:32:56.623Z,99503.28
2019-03-20T14:35:25.074Z,99506.77
2019-03-20T14:37:53.581Z,99510.12
2019-03-20T14:40:37.127Z,99506.75
2019-03-20T14:43:00.375Z,99501.79
2019-03-20T14:45:29.068Z,99499.79
2019-03-20T14:47:57.686Z,99500.27
2019-03-20T14:50:26.939Z,99488.61
2019-03-20T14:52:55.646Z,99500.58
2019-03-20T14:55:24.301Z,99500.02
2019-03-20T14:57:52.699Z,99497.97
2019-03-20T15:00:26.150Z,99492.77
2019-03-20T15:02:54.917Z,99490.06
2019-03-20T15:05:23.425Z,99482.08
2019-03-20T15:07:51.818Z,99481.00
2019-03-20T15:10:24.930Z,99482.55
2019-03-20T15:12:54.010Z,99470.66
2019-03-20T15:15:27.940Z,99470.44
2019-03-20T15:17:56.576Z,99469.30
2019-03-20T15:20:25.178Z,99469.80
2019-03-20T15:22:53.573Z,99472.18
2019-03-20T15:25:22.188Z,99469.52
2019-03-20T15:27:50.819Z,99474.73
2019-03-20T15:30:24.084Z,99479.02
2019-03-20T15:32:52.698Z,99480.11
2019-03-20T15:35:21.326Z,99481.84
2019-03-20T15:37:49.943Z,99487.39
2019-03-20T15:40:22.705Z,99490.55
2019-03-20T15:42:51.089Z,99486.06
2019-03-20T15:45:19.806Z,99484.36
2019-03-20T15:47:48.204Z,99483.76
2019-03-20T15:50:27.250Z,99482.16
2019-03-20T15:52:55.932Z,99482.91
2019-03-20T15:55:34.767Z,99480.80
2019-03-20T15:58:03.415Z,99490.67
2019-03-20T16:00:31.877Z,99488.41
2019-03-20T16:03:09.043Z,99484.86
2019-03-20T16:05:37.679Z,99487.09
2019-03-20T16:08:06.375Z,99481.04
2019-03-20T16:10:34.901Z,99490.45
2019-03-20T16:13:03.347Z,99497.84
2019-03-20T16:15:31.919Z,99501.88
2019-03-20T16:18:00.300Z,99495.83
2019-03-20T16:20:28.935Z,99512.44
2019-03-20T16:22:57.315Z,99515.75
2019-03-20T16:25:25.870Z,99519.97
2019-03-20T16:27:54.258Z,99517.75
2019-03-20T16:30:26.925Z,99526.38
2019-03-20T16:32:56.519Z,99519.20
2019-03-20T16:35:24.995Z,99515.64
2019-03-20T16:37:53.620Z,99510.97
2019-03-20T16:40:32.374Z,99519.05
2019-03-20T16:43:00.831Z,99518.81
2019-03-20T16:45:32.940Z,99524.59
2019-03-20T16:48:01.318Z,99527.98
2019-03-20T16:50:29.820Z,99523.36
2019-03-20T16:52:58.455Z,99529.72
2019-03-20T16:55:27.230Z,99528.87
2019-03-20T16:57:55.861Z,99532.42
2019-03-20T17:00:29.555Z,99528.33
2019-03-20T17:02:58.020Z,99531.92
2019-03-20T17:05:27.570Z,99529.80
2019-03-20T17:07:56.391Z,99526.71
2019-03-20T17:10:26.835Z,99530.05
2019-03-20T17:12:55.458Z,99529.00
2019-03-20T17:15:26.321Z,99526.84
2019-03-20T17:17:54.958Z,99530.97
2019-03-20T17:20:23.711Z,99537.39
2019-03-20T17:22:52.343Z,99541.81
2019-03-20T17:25:20.730Z,99544.25
2019-03-20T17:27:49.362Z,99552.55
2019-03-20T17:30:22.763Z,99551.20
2019-03-20T17:32:51.383Z,99554.55
2019-03-20T17:35:19.843Z,99559.00
2019-03-20T17:37:48.221Z,99562.60
2019-03-20T17:40:26.979Z,99562.05
2019-03-20T17:42:55.591Z,99562.64
2019-03-20T17:45:28.469Z,99557.13
2019-03-20T17:47:57.149Z,99556.01
2019-03-20T17:50:30.471Z,99553.84
2019-03-20T17:52:58.839Z,99552.46
2019-03-20T17:55:27.554Z,99550.83
2019-03-20T17:57:56.426Z,99546.12
2019-03-20T18:00:36.689Z,99546.43
2019-03-20T18:03:06.215Z,99546.72
2019-03-20T18:05:34.995Z,99548.91
2019-03-20T18:08:03.738Z,99543.39
2019-03-20T18:10:33.245Z,99546.72
2019-03-20T18:13:01.853Z,99546.45
2019-03-20T18:15:30.513Z,99555.52
2019-03-20T18:17:58.987Z,99565.14
2019-03-20T18:20:27.360Z,99570.36
2019-03-20T18:22:55.738Z,99575.57
2019-03-20T18:25:24.130Z,99575.26
2019-03-20T18:27:52.745Z,99571.70
2019-03-20T18:30:23.226Z,99575.27
2019-03-20T18:32:51.685Z,99573.05
2019-03-20T18:35:20.297Z,99580.77
2019-03-20T18:37:48.921Z,99584.34
2019-03-20T18:40:18.853Z,99587.60
2019-03-20T18:42:47.236Z,99594.44
2019-03-20T18:45:21.336Z,99589.52
2019-03-20T18:47:49.806Z,99593.34
2019-03-20T18:50:19.361Z,99599.95
2019-03-20T18:52:48.270Z,99601.83
2019-03-20T18:55:17.937Z,99596.77
2019-03-20T18:57:46.632Z,99600.59
2019-03-20T19:00:29.729Z,99600.84
2019-03-20T19:03:03.732Z,99595.94
2019-03-20T19:05:54.624Z,99591.23
2019-03-20T19:08:23.415Z,99595.69
2019-03-20T19:10:51.945Z,99597.56
2019-03-20T19:13:20.643Z,99599.16
2019-03-20T19:15:49.984Z,99597.25
2019-03-20T19:18:18.410Z,99604.84
2019-03-20T19:20:46.792Z,99606.16
2019-03-20T19:23:15.409Z,99605.73
2019-03-20T19:25:43.779Z,99611.38
2019-03-20T19:28:12.483Z,99615.33
2019-03-20T19:30:41.100Z,99613.33
2019-03-20T19:33:09.478Z,99614.89
2019-03-20T19:35:38.113Z,99617.52
2019-03-20T19:38:06.507Z,99615.54
2019-03-20T19:40:34.882Z,99614.05
2019-03-20T19:43:03.288Z,99615.64
2019-03-20T19:45:31.897Z,99613.39
2019-03-20T19:48:00.517Z,99617.45
2019-03-20T19:50:29.160Z,99623.82
2019-03-20T19:53:00.139Z,99623.47
2019-03-20T19:55:30.325Z,99625.55
2019-03-20T19:57:58.960Z,99597.39
2019-03-20T20:00:28.337Z,99619.58
2019-03-20T20:02:56.716Z,99630.66
2019-03-20T20:05:25.359Z,99630.66
2019-03-20T20:07:53.978Z,99632.05
2019-03-20T20:10:22.610Z,99638.88
2019-03-20T20:12:51.238Z,99638.84
2019-03-20T20:15:28.733Z,99639.20
2019-03-20T20:17:57.348Z,99634.69
2019-03-20T20:20:36.786Z,99638.38
2019-03-20T20:23:05.172Z,99638.28
2019-03-20T20:25:33.835Z,99636.92
2019-03-20T20:28:02.410Z,99638.80
2019-03-20T20:30:31.298Z,99641.18
2019-03-20T20:32:59.958Z,99637.86
2019-03-20T20:35:28.684Z,99640.17
2019-03-20T20:37:57.039Z,99642.75
2019-03-20T20:40:30.442Z,99649.13
2019-03-20T20:43:00.011Z,99644.13
2019-03-20T20:45:28.575Z,99638.66
2019-03-20T20:47:57.198Z,99646.86
2019-03-20T20:50:26.235Z,99645.91
2019-03-20T20:52:55.305Z,99645.02
2019-03-20T20:55:24.744Z,99645.75
2019-03-20T20:57:54.829Z,99643.47
2019-03-20T21:00:25.182Z,99643.08
2019-03-20T21:02:54.023Z,99641.66
2019-03-20T21:05:22.660Z,99640.68
2019-03-20T21:07:51.289Z,99638.34
2019-03-20T21:10:26.144Z,99641.03
2019-03-20T21:12:57.358Z,99641.03
2019-03-20T21:15:34.173Z,99645.78
2019-03-20T21:18:33.848Z,99646.37
2019-03-20T21:21:02.350Z,99647.41
2019-03-20T21:23:59.095Z,99650.59
2019-03-20T21:26:30.512Z,99651.37
2019-03-20T21:29:24.294Z,99653.75
2019-03-20T21:32:05.754Z,99652.33
2019-03-20T21:34:53.495Z,99659.48
2019-03-20T21:37:41.447Z,99654.16
2019-03-20T21:40:11.576Z,99648.20
2019-03-20T21:43:07.272Z,99657.01
2019-03-20T21:45:57.040Z,99656.28
2019-03-20T21:48:25.503Z,99661.91
2019-03-20T21:50:59.715Z,99663.71
2019-03-20T21:53:56.784Z,99661.06
2019-03-20T21:56:37.131Z,99661.26
2019-03-20T21:59:34.175Z,99656.38
2019-03-20T22:02:14.725Z,99661.81
2019-03-20T22:04:43.133Z,99665.08
2019-03-20T22:07:12.671Z,99668.19
2019-03-20T22:09:56.137Z,99663.47
2019-03-20T22:12:42.537Z,99662.57
2019-03-20T22:15:22.900Z,99659.81
2019-03-20T22:18:03.174Z,99657.11
2019-03-20T22:20:37.706Z,99655.69
2019-03-20T22:23:12.150Z,99652.52
2019-03-20T22:26:12.241Z,99654.06
2019-03-20T22:28:52.287Z,99655.08
2019-03-20T22:31:21.337Z,99658.78
2019-03-20T22:34:24.669Z,99656.20
2019-03-20T22:36:54.243Z,99652.56
2019-03-20T22:39:56.806Z,99662.02
2019-03-20T22:42:50.692Z,99669.27
2019-03-20T22:45:41.759Z,99667.07
2019-03-20T22:48:28.123Z,99666.37
2019-03-20T22:51:19.300Z,99660.29
2019-03-20T22:54:08.707Z,99664.56
2019-03-20T22:56:52.014Z,99665.33
2019-03-20T22:59:20.420Z,99663.13
2019-03-20T23:02:06.456Z,99665.50
2019-03-20T23:04:38.004Z,99672.64
2019-03-20T23:07:06.632Z,99668.23
2019-03-20T23:09:35.018Z,99659.39
2019-03-20T23:12:06.262Z,99661.17
2019-03-20T23:14:34.660Z,99660.29
2019-03-20T23:17:03.279Z,99661.55
2019-03-20T23:19:31.931Z,99651.16
2019-03-20T23:22:00.315Z,99653.18
2019-03-20T23:24:28.706Z,99645.41
2019-03-20T23:26:58.550Z,99648.95
2019-03-20T23:29:26.935Z,99644.86
2019-03-20T23:31:55.323Z,99645.06
2019-03-20T23:34:23.726Z,99648.48
2019-03-20T23:36:52.113Z,99646.28
2019-03-20T23:39:20.735Z,99645.16
2019-03-20T23:41:49.195Z,99643.03
2019-03-20T23:44:17.831Z,99643.52
2019-03-20T23:46:46.223Z,99643.27
2019-03-20T23:49:17.610Z,99643.27
2019-03-20T23:51:46.002Z,99641.91
2019-03-20T23:54:16.225Z,99639.83
2019-03-20T23:56:44.630Z,99638.80
2019-03-20T23:59:13.020Z,99632.83
